createdAt,value
2018-12-08T00:00:37.966Z,80.50
2018-12-08T00:03:07.947Z,80.90
2018-12-08T00:05:36.826Z,80.90
2018-12-08T00:08:05.629Z,81.10
2018-12-08T00:10:34.807Z,81.90
2018-12-08T00:13:04.389Z,82.30
2018-12-08T00:15:33.208Z,82.60
2018-12-08T00:18:02.657Z,79.20
2018-12-08T00:20:31.393Z,78.60
2018-12-08T00:23:00.105Z,79.00
2018-12-08T00:25:28.919Z,79.30
2018-12-08T00:27:57.691Z,79.80
2018-12-08T00:30:37.544Z,79.70
2018-12-08T00:33:08.001Z,80.20
2018-12-08T00:35:37.087Z,79.90
2018-12-08T00:38:06.261Z,80.30
2018-12-08T00:40:35.120Z,80.30
2018-12-08T00:43:04.450Z,79.80
2018-12-08T00:45:33.259Z,79.90
2018-12-08T00:48:02.244Z,80.70
2018-12-08T00:50:31.101Z,81.40
2018-12-08T00:52:59.919Z,83.00
2018-12-08T00:55:28.748Z,82.70
2018-12-08T00:57:58.001Z,83.10
2018-12-08T01:00:27.093Z,83.50
2018-12-08T01:02:56.530Z,83.00
2018-12-08T01:05:25.270Z,82.40
2018-12-08T01:07:54.046Z,82.30
2018-12-08T01:10:23.002Z,81.70
2018-12-08T01:12:52.342Z,81.40
2018-12-08T01:15:21.362Z,80.60
2018-12-08T01:17:50.286Z,80.60
2018-12-08T01:20:19.252Z,80.30
2018-12-08T01:22:48.074Z,80.70
2018-12-08T01:25:17.118Z,80.20
2018-12-08T01:27:45.955Z,80.70
2018-12-08T01:30:14.679Z,81.10
2018-12-08T01:32:43.349Z,80.40
2018-12-08T01:35:12.454Z,80.70
2018-12-08T01:37:41.243Z,80.30
2018-12-08T01:40:09.999Z,80.80
2018-12-08T01:42:38.740Z,80.80
2018-12-08T01:45:07.703Z,81.30
2018-12-08T01:47:36.413Z,81.70
2018-12-08T01:50:05.914Z,82.50
2018-12-08T01:52:34.926Z,82.60
2018-12-08T01:55:04.048Z,82.40
2018-12-08T01:57:33.076Z,82.40
2018-12-08T02:00:02.038Z,82.00
2018-12-08T02:02:31.063Z,81.60
2018-12-08T02:04:59.933Z,81.60
2018-12-08T02:07:28.786Z,81.40
2018-12-08T02:09:57.823Z,81.30
2018-12-08T02:12:26.619Z,82.10
2018-12-08T02:14:55.458Z,81.10
2018-12-08T02:17:24.387Z,81.50
2018-12-08T02:19:53.168Z,81.80
2018-12-08T02:22:21.965Z,82.40
2018-12-08T02:24:50.882Z,83.30
2018-12-08T02:27:19.707Z,83.00
2018-12-08T02:29:48.670Z,83.90
2018-12-08T02:32:17.602Z,83.70
2018-12-08T02:34:46.545Z,83.10
2018-12-08T02:37:15.349Z,81.90
2018-12-08T02:39:44.146Z,81.10
2018-12-08T02:42:13.027Z,80.30
2018-12-08T02:44:41.835Z,79.80
2018-12-08T02:47:10.521Z,79.60
2018-12-08T02:49:39.330Z,80.20
2018-12-08T02:52:08.181Z,79.40
2018-12-08T02:54:36.971Z,79.10
2018-12-08T02:57:05.876Z,79.10
2018-12-08T02:59:34.682Z,79.10
2018-12-08T03:02:04.410Z,80.00
2018-12-08T03:04:33.300Z,80.30
2018-12-08T03:07:02.181Z,79.80
2018-12-08T03:09:30.945Z,81.20
2018-12-08T03:11:59.691Z,81.20
2018-12-08T03:14:28.481Z,80.90
2018-12-08T03:16:57.295Z,80.80
2018-12-08T03:19:26.232Z,81.00
2018-12-08T03:21:55.443Z,81.30
2018-12-08T03:27:01.470Z,81.30
2018-12-08T03:29:30.260Z,81.30
2018-12-08T03:31:59.124Z,80.90
2018-12-08T03:34:27.913Z,80.90
2018-12-08T03:36:56.772Z,81.00
2018-12-08T03:39:25.486Z,81.30
2018-12-08T03:41:54.291Z,82.00
2018-12-08T03:44:23.089Z,82.60
2018-12-08T03:46:51.778Z,82.50
2018-12-08T03:49:20.504Z,82.90
2018-12-08T03:51:49.252Z,82.90
2018-12-08T03:54:18.021Z,83.60
2018-12-08T03:56:46.804Z,83.70
2018-12-08T03:59:16.715Z,84.20
2018-12-08T04:01:45.534Z,86.00
2018-12-08T04:04:14.618Z,87.90
2018-12-08T04:06:43.561Z,88.20
2018-12-08T04:09:12.719Z,88.10
2018-12-08T04:11:41.586Z,88.90
2018-12-08T04:14:10.409Z,89.60
2018-12-08T04:16:39.325Z,89.50
2018-12-08T04:19:08.261Z,89.20
2018-12-08T04:21:36.949Z,89.20
2018-12-08T04:24:05.602Z,89.70
2018-12-08T04:26:34.341Z,89.40
2018-12-08T04:29:03.632Z,89.80
2018-12-08T04:31:32.330Z,89.00
2018-12-08T04:34:01.421Z,88.20
2018-12-08T04:36:30.203Z,88.50
2018-12-08T04:38:58.974Z,88.10
2018-12-08T04:41:27.750Z,86.80
2018-12-08T04:43:56.691Z,87.20
2018-12-08T04:46:25.667Z,86.60
2018-12-08T04:48:54.648Z,86.20
2018-12-08T04:51:23.335Z,86.00
2018-12-08T04:53:52.006Z,85.60
2018-12-08T04:56:21.125Z,85.90
2018-12-08T04:58:49.974Z,85.50
2018-12-08T05:01:18.885Z,85.70
2018-12-08T05:03:47.662Z,85.10
2018-12-08T05:06:16.591Z,85.40
2018-12-08T05:08:45.516Z,85.50
2018-12-08T05:11:14.285Z,85.00
2018-12-08T05:13:43.746Z,85.70
2018-12-08T05:16:12.678Z,85.30
2018-12-08T05:18:41.744Z,85.40
2018-12-08T05:21:10.596Z,84.80
2018-12-08T05:23:41.300Z,84.80
2018-12-08T05:26:10.314Z,84.50
2018-12-08T05:28:39.762Z,84.20
2018-12-08T05:31:08.644Z,84.30
2018-12-08T05:33:37.535Z,84.30
2018-12-08T05:36:06.468Z,84.70
2018-12-08T05:38:35.229Z,84.00
2018-12-08T05:41:03.967Z,83.50
2018-12-08T05:43:33.470Z,83.20
2018-12-08T05:46:02.220Z,83.30
2018-12-08T05:48:30.887Z,82.80
2018-12-08T05:50:59.577Z,82.80
2018-12-08T05:53:30.331Z,82.20
2018-12-08T05:55:59.099Z,82.20
2018-12-08T05:58:27.887Z,81.50
2018-12-08T06:00:56.558Z,81.30
2018-12-08T06:03:27.841Z,81.00
2018-12-08T06:05:56.695Z,81.00
2018-12-08T06:08:27.347Z,80.30
2018-12-08T06:10:56.132Z,80.40
2018-12-08T06:13:27.598Z,80.20
2018-12-08T06:15:56.484Z,80.20
2018-12-08T06:18:25.164Z,80.40
2018-12-08T06:20:53.925Z,80.80
2018-12-08T06:23:23.115Z,80.60
2018-12-08T06:25:51.786Z,81.40
2018-12-08T06:28:24.969Z,81.70
2018-12-08T06:30:54.010Z,81.10
2018-12-08T06:33:23.899Z,82.00
2018-12-08T06:35:52.662Z,81.70
2018-12-08T06:38:21.625Z,82.20
2018-12-08T06:40:50.274Z,82.10
2018-12-08T06:43:19.247Z,82.10
2018-12-08T06:45:47.988Z,82.30
2018-12-08T06:48:17.689Z,82.50
2018-12-08T06:50:46.433Z,82.50
2018-12-08T06:53:15.982Z,82.40
2018-12-08T06:55:44.695Z,82.60
2018-12-08T06:58:13.541Z,82.50
2018-12-08T07:00:42.286Z,82.30
2018-12-08T07:03:12.146Z,82.40
2018-12-08T07:05:40.891Z,81.90
2018-12-08T07:08:10.447Z,81.70
2018-12-08T07:10:39.154Z,81.70
2018-12-08T07:13:08.755Z,81.50
2018-12-08T07:15:37.503Z,81.50
2018-12-08T07:18:07.297Z,81.20
2018-12-08T07:20:36.118Z,81.60
2018-12-08T07:23:05.631Z,81.10
2018-12-08T07:25:34.312Z,81.20
2018-12-08T07:28:03.703Z,80.90
2018-12-08T07:30:32.528Z,80.30
2018-12-08T07:33:01.276Z,80.20
2018-12-08T07:35:30.073Z,79.50
2018-12-08T07:37:58.756Z,79.40
2018-12-08T07:40:27.635Z,79.10
2018-12-08T07:42:56.359Z,78.20
2018-12-08T07:45:25.088Z,77.70
2018-12-08T07:47:53.810Z,77.50
2018-12-08T07:50:22.848Z,77.50
2018-12-08T07:52:51.695Z,76.50
2018-12-08T07:55:20.689Z,75.60
2018-12-08T07:57:49.679Z,75.80
2018-12-08T08:00:18.480Z,76.00
2018-12-08T08:02:47.403Z,75.60
2018-12-08T08:05:16.034Z,74.90
2018-12-08T08:07:44.874Z,73.00
2018-12-08T08:10:13.856Z,72.60
2018-12-08T08:12:43.439Z,72.20
2018-12-08T08:15:12.661Z,71.60
2018-12-08T08:17:41.658Z,71.40
2018-12-08T08:20:11.550Z,71.60
2018-12-08T08:22:40.546Z,71.40
2018-12-08T08:25:11.216Z,71.30
2018-12-08T08:27:40.183Z,71.90
2018-12-08T08:30:11.760Z,71.30
2018-12-08T08:32:41.090Z,71.10
2018-12-08T08:35:11.154Z,71.00
2018-12-08T08:37:39.963Z,70.50
2018-12-08T08:40:10.688Z,70.50
2018-12-08T08:42:39.442Z,70.50
2018-12-08T08:45:09.516Z,70.40
2018-12-08T08:47:38.392Z,69.50
2018-12-08T08:50:09.829Z,68.60
2018-12-08T08:52:38.759Z,69.10
2018-12-08T08:55:08.280Z,69.00
2018-12-08T08:57:37.881Z,67.30
2018-12-08T09:00:08.978Z,65.20
2018-12-08T09:02:37.864Z,65.20
2018-12-08T09:05:07.564Z,63.50
2018-12-08T09:07:36.463Z,59.60
2018-12-08T09:10:08.868Z,57.40
2018-12-08T09:12:37.748Z,55.80
2018-12-08T09:15:07.834Z,54.10
2018-12-08T09:17:36.600Z,54.00
2018-12-08T09:20:07.805Z,54.20
2018-12-08T09:22:36.685Z,54.30
2018-12-08T09:25:06.373Z,55.10
2018-12-08T09:27:35.078Z,55.40
2018-12-08T09:30:04.479Z,55.70
2018-12-08T09:32:33.356Z,56.10
2018-12-08T09:35:02.912Z,56.30
2018-12-08T09:37:31.887Z,57.40
2018-12-08T09:40:01.263Z,57.80
2018-12-08T09:42:30.189Z,55.20
2018-12-08T09:44:59.145Z,54.00
2018-12-08T09:47:28.157Z,51.80
2018-12-08T09:49:57.336Z,50.70
2018-12-08T09:52:26.094Z,49.40
2018-12-08T09:54:54.916Z,48.00
2018-12-08T09:57:24.554Z,47.20
2018-12-08T09:59:53.723Z,45.40
2018-12-08T10:02:22.929Z,46.30
2018-12-08T10:04:52.746Z,46.20
2018-12-08T10:07:21.808Z,44.20
2018-12-08T10:09:50.491Z,44.40
2018-12-08T10:12:19.303Z,45.80
2018-12-08T10:14:48.186Z,46.00
2018-12-08T10:17:18.299Z,46.20
2018-12-08T10:19:47.318Z,47.20
2018-12-08T10:22:16.385Z,48.50
2018-12-08T10:24:45.084Z,48.00
2018-12-08T10:27:14.586Z,48.80
2018-12-08T10:29:43.476Z,50.10
2018-12-08T10:32:12.251Z,50.60
2018-12-08T10:34:40.983Z,51.30
2018-12-08T10:37:11.948Z,52.60
2018-12-08T10:39:40.910Z,52.70
2018-12-08T10:42:09.875Z,53.10
2018-12-08T10:44:38.660Z,52.80
2018-12-08T10:47:07.458Z,53.10
2018-12-08T10:49:36.306Z,53.20
2018-12-08T10:52:05.264Z,52.40
2018-12-08T10:54:34.180Z,52.90
2018-12-08T10:57:03.211Z,51.80
2018-12-08T10:59:32.022Z,50.60
2018-12-08T11:02:03.486Z,49.60
2018-12-08T11:04:32.432Z,49.50
2018-12-08T11:07:01.301Z,50.10
2018-12-08T11:09:30.125Z,51.00
2018-12-08T11:11:58.864Z,51.80
2018-12-08T11:14:27.819Z,51.90
2018-12-08T11:16:56.596Z,51.30
2018-12-08T11:19:25.394Z,51.50
2018-12-08T11:22:09.519Z,52.70
2018-12-08T11:24:38.566Z,53.00
2018-12-08T11:27:07.527Z,53.10
2018-12-08T11:29:36.449Z,53.80
2018-12-08T11:32:05.351Z,54.00
2018-12-08T11:34:34.281Z,55.30
2018-12-08T11:37:03.303Z,56.10
2018-12-08T11:39:32.085Z,56.40
2018-12-08T11:42:02.221Z,56.40
2018-12-08T11:44:31.395Z,56.10
2018-12-08T11:47:00.571Z,56.80
2018-12-08T11:49:30.696Z,57.00
2018-12-08T11:52:01.372Z,56.20
2018-12-08T11:54:31.031Z,55.90
2018-12-08T11:57:00.060Z,56.30
2018-12-08T11:59:28.930Z,56.40
2018-12-08T12:01:57.984Z,56.00
2018-12-08T12:04:27.037Z,56.20
2018-12-08T12:06:55.935Z,56.70
2018-12-08T12:09:25.060Z,56.50
2018-12-08T12:11:53.924Z,56.50
2018-12-08T12:14:40.534Z,57.20
2018-12-08T12:17:09.511Z,57.60
2018-12-08T12:19:38.788Z,57.50
2018-12-08T12:22:08.926Z,57.30
2018-12-08T12:24:37.955Z,56.90
2018-12-08T12:27:06.883Z,57.40
2018-12-08T12:29:37.598Z,57.70
2018-12-08T12:32:07.652Z,57.50
2018-12-08T12:34:36.541Z,57.40
2018-12-08T12:37:05.630Z,57.20
2018-12-08T12:39:34.475Z,57.50
2018-12-08T12:42:04.533Z,58.10
2018-12-08T12:44:33.917Z,58.00
2018-12-08T12:47:02.955Z,57.60
2018-12-08T12:49:32.043Z,58.60
2018-12-08T12:52:01.251Z,58.10
2018-12-08T12:54:30.281Z,58.20
2018-12-08T12:56:59.278Z,58.50
2018-12-08T12:59:28.481Z,59.00
2018-12-08T13:01:57.572Z,58.60
2018-12-08T13:04:26.709Z,58.50
2018-12-08T13:06:55.693Z,58.80
2018-12-08T13:09:24.819Z,58.40
2018-12-08T13:11:55.637Z,58.90
2018-12-08T13:14:24.745Z,59.10
2018-12-08T13:16:53.748Z,59.00
2018-12-08T13:19:22.742Z,59.10
2018-12-08T13:21:51.679Z,59.40
2018-12-08T13:24:20.844Z,59.30
2018-12-08T13:26:50.122Z,60.10
2018-12-08T13:29:19.045Z,59.90
2018-12-08T13:31:48.494Z,59.50
2018-12-08T13:34:27.451Z,59.70
2018-12-08T13:36:57.747Z,60.00
2018-12-08T13:39:26.977Z,60.50
2018-12-08T13:41:56.090Z,60.50
2018-12-08T13:44:40.911Z,61.70
2018-12-08T13:47:10.531Z,62.30
2018-12-08T13:49:39.474Z,63.00
2018-12-08T13:52:08.735Z,62.60
2018-12-08T13:54:46.842Z,62.60
2018-12-08T13:57:16.562Z,63.30
2018-12-08T13:59:55.418Z,62.90
2018-12-08T14:02:24.865Z,63.10
2018-12-08T14:04:53.771Z,63.10
2018-12-08T14:07:22.758Z,63.40
2018-12-08T14:09:51.787Z,63.30
2018-12-08T14:12:21.027Z,63.60
2018-12-08T14:14:50.190Z,63.50
2018-12-08T14:17:19.143Z,63.50
2018-12-08T14:19:48.212Z,64.00
2018-12-08T14:22:17.211Z,63.70
2018-12-08T14:24:46.461Z,64.40
2018-12-08T14:27:15.423Z,64.50
2018-12-08T14:29:45.071Z,64.60
2018-12-08T14:32:14.104Z,64.80
2018-12-08T14:34:43.097Z,65.20
2018-12-08T14:37:12.013Z,65.10
2018-12-08T14:39:40.978Z,65.50
2018-12-08T14:42:10.026Z,65.50
2018-12-08T14:44:39.423Z,66.50
2018-12-08T14:47:08.621Z,66.50
2018-12-08T14:49:41.193Z,67.20
2018-12-08T14:52:10.012Z,67.60
2018-12-08T14:54:38.782Z,68.10
2018-12-08T14:57:08.468Z,68.60
2018-12-08T14:59:37.702Z,69.10
2018-12-08T15:02:06.785Z,69.50
2018-12-08T15:04:35.745Z,70.10
2018-12-08T15:07:05.050Z,71.00
2018-12-08T15:09:34.428Z,71.60
2018-12-08T15:12:03.958Z,71.30
2018-12-08T15:14:33.343Z,71.90
2018-12-08T15:17:02.657Z,72.00
2018-12-08T15:19:31.688Z,72.30
2018-12-08T15:22:00.722Z,72.00
2018-12-08T15:24:30.080Z,72.70
2018-12-08T15:26:59.308Z,73.00
2018-12-08T15:29:28.766Z,72.90
2018-12-08T15:31:58.433Z,72.80
2018-12-08T15:34:27.695Z,73.30
2018-12-08T15:36:56.849Z,73.40
2018-12-08T15:39:25.976Z,73.10
2018-12-08T15:41:55.148Z,73.20
2018-12-08T15:44:24.176Z,73.40
2018-12-08T15:46:53.490Z,73.20
2018-12-08T15:49:22.793Z,73.80
2018-12-08T15:51:57.156Z,73.50
2018-12-08T15:54:26.474Z,73.70
2018-12-08T15:56:55.456Z,73.70
2018-12-08T15:59:24.404Z,73.80
2018-12-08T16:01:53.721Z,74.10
2018-12-08T16:04:23.196Z,74.10
2018-12-08T16:06:51.931Z,74.60
2018-12-08T16:09:20.831Z,74.70
2018-12-08T16:11:49.754Z,75.20
2018-12-08T16:14:18.667Z,75.00
2018-12-08T16:16:47.791Z,75.00
2018-12-08T16:19:16.874Z,75.20
2018-12-08T16:21:46.032Z,75.40
2018-12-08T16:24:15.007Z,75.40
2018-12-08T16:26:43.933Z,76.00
2018-12-08T16:29:13.002Z,75.60
2018-12-08T16:31:42.241Z,75.60
2018-12-08T16:34:11.565Z,75.90
2018-12-08T16:36:41.065Z,75.70
2018-12-08T16:39:10.584Z,75.70
2018-12-08T16:41:40.651Z,75.70
2018-12-08T16:44:09.936Z,75.90
2018-12-08T16:46:39.098Z,75.90
2018-12-08T16:49:08.283Z,76.00
2018-12-08T16:51:37.403Z,76.10
2018-12-08T16:54:08.008Z,76.00
2018-12-08T16:56:37.739Z,77.10
2018-12-08T16:59:07.564Z,76.70
2018-12-08T17:01:37.482Z,76.90
2018-12-08T17:04:06.685Z,76.80
2018-12-08T17:06:35.815Z,76.70
2018-12-08T17:09:05.912Z,76.90
2018-12-08T17:11:35.159Z,76.70
2018-12-08T17:14:04.397Z,76.80
2018-12-08T17:16:33.924Z,76.70
2018-12-08T17:19:03.078Z,77.00
2018-12-08T17:21:32.092Z,77.20
2018-12-08T17:24:01.314Z,77.60
2018-12-08T17:26:30.787Z,77.80
2018-12-08T17:28:59.579Z,78.40
2018-12-08T17:31:28.309Z,78.10
2018-12-08T17:33:57.244Z,78.30
2018-12-08T17:36:27.484Z,79.10
2018-12-08T17:38:56.573Z,78.60
2018-12-08T17:41:25.958Z,78.60
2018-12-08T17:43:55.881Z,79.00
2018-12-08T17:46:24.994Z,78.90
2018-12-08T17:48:53.963Z,78.60
2018-12-08T17:51:23.193Z,79.10
2018-12-08T17:53:52.415Z,79.30
2018-12-08T17:56:21.473Z,78.60
2018-12-08T17:58:50.818Z,78.80
2018-12-08T18:01:19.899Z,78.80
2018-12-08T18:03:49.861Z,78.60
2018-12-08T18:06:19.019Z,78.50
2018-12-08T18:08:49.425Z,78.40
2018-12-08T18:11:21.010Z,78.60
2018-12-08T18:13:50.883Z,78.00
2018-12-08T18:16:20.184Z,77.90
2018-12-08T18:18:49.466Z,78.00
2018-12-08T18:21:18.956Z,78.10
2018-12-08T18:23:48.846Z,77.80
2018-12-08T18:26:18.167Z,78.00
2018-12-08T18:28:50.771Z,77.70
2018-12-08T18:31:20.619Z,77.80
2018-12-08T18:33:49.696Z,77.50
2018-12-08T18:36:18.691Z,77.80
2018-12-08T18:38:48.177Z,77.40
2018-12-08T18:41:17.249Z,77.20
2018-12-08T18:43:47.054Z,77.50
2018-12-08T18:46:16.546Z,76.90
2018-12-08T18:48:45.606Z,76.40
2018-12-08T18:51:14.969Z,76.40
2018-12-08T18:53:43.842Z,76.10
2018-12-08T18:56:12.751Z,76.00
2018-12-08T18:58:42.168Z,76.20
2018-12-08T19:01:11.877Z,75.60
2018-12-08T19:03:40.866Z,75.20
2018-12-08T19:06:09.636Z,75.20
2018-12-08T19:08:40.431Z,75.10
2018-12-08T19:11:09.691Z,74.90
2018-12-08T19:13:39.979Z,75.10
2018-12-08T19:16:08.944Z,74.70
2018-12-08T19:18:38.467Z,74.60
2018-12-08T19:21:07.233Z,74.50
2018-12-08T19:23:43.623Z,75.10
2018-12-08T19:26:11.249Z,75.20
2018-12-08T19:28:40.301Z,74.80
2018-12-08T19:31:09.294Z,74.50
2018-12-08T19:33:38.263Z,74.20
2018-12-08T19:36:07.201Z,74.10
2018-12-08T19:38:36.275Z,74.30
2018-12-08T19:41:05.674Z,74.40
2018-12-08T19:43:34.878Z,74.40
2018-12-08T19:46:05.364Z,73.70
2018-12-08T19:48:34.158Z,74.00
2018-12-08T19:51:03.107Z,73.80
2018-12-08T19:53:31.962Z,73.30
2018-12-08T19:56:01.488Z,72.80
2018-12-08T19:58:31.101Z,73.20
2018-12-08T20:01:00.158Z,73.20
2018-12-08T20:03:30.308Z,73.20
2018-12-08T20:05:59.079Z,73.60
2018-12-08T20:08:27.790Z,72.80
2018-12-08T20:10:56.724Z,73.00
2018-12-08T20:13:25.935Z,73.20
2018-12-08T20:15:54.846Z,73.20
2018-12-08T20:18:25.254Z,73.10
2018-12-08T20:20:55.009Z,73.10
2018-12-08T20:23:25.723Z,73.40
2018-12-08T20:25:54.536Z,73.30
2018-12-08T20:28:24.495Z,73.60
2018-12-08T20:30:53.292Z,73.90
2018-12-08T20:33:22.690Z,73.90
2018-12-08T20:35:51.853Z,73.80
2018-12-08T20:38:20.983Z,73.90
2018-12-08T20:40:50.627Z,73.60
2018-12-08T20:43:19.878Z,74.00
2018-12-08T20:45:48.811Z,73.70
2018-12-08T20:48:18.722Z,74.10
2018-12-08T20:50:47.543Z,74.40
2018-12-08T20:53:17.388Z,74.70
2018-12-08T20:55:46.664Z,74.80
2018-12-08T20:58:16.566Z,74.30
2018-12-08T21:00:45.658Z,74.50
2018-12-08T21:03:14.989Z,74.50
2018-12-08T21:05:44.497Z,74.60
2018-12-08T21:08:14.452Z,74.40
2018-12-08T21:10:43.446Z,74.60
2018-12-08T21:13:14.888Z,74.80
2018-12-08T21:15:44.375Z,74.80
2018-12-08T21:18:14.054Z,75.00
2018-12-08T21:20:43.229Z,75.10
2018-12-08T21:23:12.888Z,75.20
2018-12-08T21:25:41.842Z,76.00
2018-12-08T21:28:10.807Z,75.70
2018-12-08T21:30:40.261Z,76.00
2018-12-08T21:33:09.660Z,76.10
2018-12-08T21:35:38.525Z,76.00
2018-12-08T21:41:11.928Z,75.40
2018-12-08T21:43:40.820Z,75.60
2018-12-08T21:46:09.586Z,75.70
2018-12-08T21:48:38.322Z,75.90
2018-12-08T21:51:07.375Z,76.50
2018-12-08T21:53:36.281Z,75.60
2018-12-08T21:56:05.170Z,75.40
2018-12-08T21:58:34.059Z,75.60
2018-12-08T22:01:03.093Z,75.60
2018-12-08T22:03:32.828Z,75.60
2018-12-08T22:06:01.665Z,75.80
2018-12-08T22:08:30.634Z,75.70
2018-12-08T22:11:00.080Z,75.70
2018-12-08T22:13:30.440Z,76.00
2018-12-08T22:15:59.583Z,76.10
2018-12-08T22:18:29.102Z,75.70
2018-12-08T22:20:58.695Z,76.00
2018-12-08T22:23:29.488Z,76.20
2018-12-08T22:25:58.506Z,76.60
2018-12-08T22:28:29.790Z,77.10
2018-12-08T22:30:59.234Z,76.80
2018-12-08T22:33:28.634Z,78.70
2018-12-08T22:35:57.731Z,82.00
2018-12-08T22:38:28.443Z,83.00
2018-12-08T22:40:57.377Z,82.90
2018-12-08T22:43:28.163Z,83.00
2018-12-08T22:45:58.862Z,82.80
2018-12-08T22:48:29.260Z,82.40
2018-12-08T22:50:58.774Z,81.90
2018-12-08T22:53:28.131Z,81.70
2018-12-08T22:55:57.006Z,82.20
2018-12-08T22:58:28.582Z,81.40
2018-12-08T23:00:57.886Z,81.60
2018-12-08T23:03:29.346Z,81.20
2018-12-08T23:05:58.484Z,81.30
2018-12-08T23:08:27.383Z,81.30
2018-12-08T23:10:56.451Z,81.50
2018-12-08T23:13:25.516Z,81.70
2018-12-08T23:15:54.579Z,81.80
2018-12-08T23:18:23.481Z,82.50
2018-12-08T23:20:52.425Z,82.60
2018-12-08T23:23:21.272Z,82.60
2018-12-08T23:25:50.337Z,82.80
2018-12-08T23:28:19.745Z,82.90
2018-12-08T23:30:48.502Z,83.00
2018-12-08T23:33:17.369Z,83.00
2018-12-08T23:35:46.302Z,83.10
2018-12-08T23:38:15.912Z,83.00
2018-12-08T23:40:44.999Z,82.60
2018-12-08T23:43:18.137Z,82.60
2018-12-08T23:45:59.699Z,82.70
2018-12-08T23:48:30.023Z,82.60
2018-12-08T23:51:03.842Z,83.90
2018-12-08T23:53:32.731Z,86.40
2018-12-08T23:56:05.078Z,87.80
2018-12-08T23:58:44.466Z,88.00
